createdAt,value
2022-08-20T00:01:25.134Z,1.60
2022-08-20T00:03:54.696Z,1.77
2022-08-20T00:06:25.834Z,2.07
2022-08-20T00:08:55.640Z,1.90
2022-08-20T00:11:28.979Z,1.80
2022-08-20T00:14:03.573Z,1.40
2022-08-20T00:16:36.636Z,1.80
2022-08-20T00:19:10.062Z,1.37
2022-08-20T00:21:40.017Z,2.00
2022-08-20T00:24:09.599Z,1.60
2022-08-20T00:26:39.099Z,1.40
2022-08-20T00:29:10.302Z,1.90
2022-08-20T00:31:39.785Z,1.40
2022-08-20T00:34:09.449Z,1.43
2022-08-20T00:36:38.937Z,1.30
2022-08-20T00:39:08.437Z,1.50
2022-08-20T00:41:37.930Z,1.40
2022-08-20T00:44:12.266Z,1.37
2022-08-20T00:46:43.780Z,1.63
2022-08-20T00:49:17.880Z,1.53
2022-08-20T00:51:52.958Z,1.53
2022-08-20T00:54:32.886Z,1.40
2022-08-20T00:57:23.791Z,1.90
2022-08-20T00:59:54.281Z,1.30
2022-08-20T01:02:27.789Z,1.70
2022-08-20T01:04:58.760Z,1.90
2022-08-20T01:07:31.894Z,1.80
2022-08-20T01:10:08.579Z,1.77
2022-08-20T01:12:43.328Z,1.30
2022-08-20T01:15:17.679Z,1.87
2022-08-20T01:17:52.052Z,1.73
2022-08-20T01:20:28.208Z,1.80
2022-08-20T01:23:30.105Z,1.67
2022-08-20T01:26:16.113Z,1.50
2022-08-20T01:28:55.835Z,1.50
2022-08-20T01:31:29.967Z,1.60
2022-08-20T01:34:02.870Z,1.70
2022-08-20T01:36:36.999Z,1.80
2022-08-20T01:39:10.759Z,1.67
2022-08-20T01:42:02.538Z,1.80
2022-08-20T01:44:33.592Z,1.83
2022-08-20T01:47:20.068Z,1.90
2022-08-20T01:49:54.506Z,1.47
2022-08-20T01:52:46.270Z,1.60
2022-08-20T01:55:15.990Z,1.87
2022-08-20T01:57:47.948Z,1.70
2022-08-20T02:00:21.884Z,2.00
2022-08-20T02:02:52.024Z,2.20
2022-08-20T02:05:22.595Z,1.97
2022-08-20T02:07:52.316Z,2.10
2022-08-20T02:10:23.640Z,1.70
2022-08-20T02:12:53.282Z,2.33
2022-08-20T02:15:34.887Z,2.30
2022-08-20T02:17:54.336Z,1.93
2022-08-20T02:20:28.493Z,1.90
2022-08-20T02:23:01.203Z,1.87
2022-08-20T02:25:34.856Z,2.10
2022-08-20T02:28:09.199Z,2.30
2022-08-20T02:30:43.286Z,2.00
2022-08-20T02:33:17.287Z,1.70
2022-08-20T02:35:50.130Z,1.70
2022-08-20T02:38:20.257Z,1.90
2022-08-20T02:40:50.596Z,1.67
2022-08-20T02:43:20.326Z,1.93
2022-08-20T02:45:49.890Z,1.80
2022-08-20T02:48:22.981Z,2.17
2022-08-20T02:51:01.869Z,1.90
2022-08-20T02:53:35.461Z,2.10
2022-08-20T02:56:06.765Z,1.67
2022-08-20T02:58:37.188Z,2.50
2022-08-20T03:01:12.709Z,1.87
2022-08-20T03:03:43.665Z,1.90
2022-08-20T03:06:16.144Z,1.90
2022-08-20T03:08:45.897Z,2.13
2022-08-20T03:11:15.624Z,2.20
2022-08-20T03:13:45.810Z,2.00
2022-08-20T03:16:16.819Z,2.13
2022-08-20T03:18:51.996Z,2.10
2022-08-20T03:21:19.938Z,2.50
2022-08-20T03:23:49.418Z,2.10
2022-08-20T03:26:18.988Z,2.30
2022-08-20T03:28:49.348Z,2.50
2022-08-20T03:31:18.992Z,2.40
2022-08-20T03:33:53.155Z,2.23
2022-08-20T03:36:22.288Z,2.40
2022-08-20T03:38:51.619Z,2.30
2022-08-20T03:41:21.262Z,2.37
2022-08-20T03:43:50.982Z,2.20
2022-08-20T03:46:23.075Z,2.27
2022-08-20T03:48:59.911Z,2.50
2022-08-20T03:51:24.896Z,2.50
2022-08-20T03:53:54.378Z,3.20
2022-08-20T03:56:23.882Z,2.73
2022-08-20T03:58:53.362Z,2.50
2022-08-20T04:01:45.675Z,2.97
2022-08-20T04:03:55.299Z,2.70
2022-08-20T04:06:24.823Z,2.30
2022-08-20T04:08:54.415Z,2.70
2022-08-20T04:11:24.351Z,2.20
2022-08-20T04:13:53.820Z,2.70
2022-08-20T04:16:24.000Z,2.30
2022-08-20T04:19:01.500Z,2.27
2022-08-20T04:21:24.737Z,2.60
2022-08-20T04:23:56.600Z,2.50
2022-08-20T04:26:26.100Z,2.47
2022-08-20T04:28:55.869Z,3.30
2022-08-20T04:31:25.712Z,2.60
2022-08-20T04:33:55.187Z,2.80
2022-08-20T04:36:24.682Z,2.20
2022-08-20T04:38:54.161Z,2.63
2022-08-20T04:41:25.267Z,3.10
2022-08-20T04:43:56.455Z,2.77
2022-08-20T04:46:29.215Z,2.17
2022-08-20T04:49:00.836Z,2.77
2022-08-20T04:51:30.342Z,2.57
2022-08-20T04:54:02.703Z,2.87
2022-08-20T04:56:37.728Z,2.80
2022-08-20T04:59:08.218Z,2.90
2022-08-20T05:01:37.801Z,2.90
2022-08-20T05:04:07.284Z,2.57
2022-08-20T05:06:36.782Z,2.93
2022-08-20T05:09:06.350Z,2.83
2022-08-20T05:11:37.046Z,2.80
2022-08-20T05:14:09.987Z,2.67
2022-08-20T05:16:41.600Z,2.40
2022-08-20T05:19:14.091Z,2.90
2022-08-20T05:21:43.862Z,2.80
2022-08-20T05:24:13.338Z,2.70
2022-08-20T05:26:43.079Z,3.40
2022-08-20T05:29:13.138Z,2.77
2022-08-20T05:31:42.810Z,2.43
2022-08-20T05:34:13.734Z,2.80
2022-08-20T05:36:50.397Z,2.80
2022-08-20T05:39:22.698Z,2.60
2022-08-20T05:41:52.939Z,2.50
2022-08-20T05:44:22.432Z,2.60
2022-08-20T05:46:51.928Z,2.43
2022-08-20T05:49:23.551Z,3.13
2022-08-20T05:51:53.974Z,2.40
2022-08-20T05:54:23.883Z,2.80
2022-08-20T05:56:53.802Z,2.97
2022-08-20T05:59:24.347Z,3.07
2022-08-20T06:01:54.280Z,2.40
2022-08-20T06:04:28.218Z,2.67
2022-08-20T06:07:07.063Z,2.60
2022-08-20T06:09:36.581Z,2.70
2022-08-20T06:12:09.237Z,2.70
2022-08-20T06:14:38.787Z,2.60
2022-08-20T06:17:13.571Z,3.10
2022-08-20T06:19:46.063Z,2.77
2022-08-20T06:22:20.050Z,3.10
2022-08-20T06:24:49.204Z,2.90
2022-08-20T06:27:19.641Z,3.10
2022-08-20T06:29:49.672Z,3.07
2022-08-20T06:32:28.815Z,3.13
2022-08-20T06:34:56.602Z,2.47
2022-08-20T06:37:31.472Z,3.70
2022-08-20T06:40:06.503Z,3.00
2022-08-20T06:42:36.750Z,2.93
2022-08-20T06:45:06.648Z,3.10
2022-08-20T06:47:38.002Z,2.77
2022-08-20T06:50:13.400Z,2.87
2022-08-20T06:52:52.645Z,3.00
2022-08-20T06:55:17.389Z,3.17
2022-08-20T06:57:48.397Z,2.97
2022-08-20T07:00:21.013Z,3.33
2022-08-20T07:02:50.499Z,3.17
2022-08-20T07:05:20.059Z,3.40
2022-08-20T07:07:50.832Z,2.87
2022-08-20T07:10:24.925Z,3.23
2022-08-20T07:12:54.537Z,3.10
2022-08-20T07:15:29.238Z,3.77
2022-08-20T07:18:04.001Z,3.57
2022-08-20T07:20:38.269Z,3.73
2022-08-20T07:23:10.361Z,3.37
2022-08-20T07:25:43.075Z,3.90
2022-08-20T07:28:22.857Z,3.60
2022-08-20T07:31:13.364Z,3.10
2022-08-20T07:33:42.407Z,3.70
2022-08-20T07:36:14.441Z,3.50
2022-08-20T07:38:45.572Z,3.80
2022-08-20T07:41:15.352Z,4.00
2022-08-20T07:43:46.656Z,3.27
2022-08-20T07:46:21.384Z,2.90
2022-08-20T07:48:52.320Z,3.80
2022-08-20T07:51:23.748Z,3.70
2022-08-20T07:53:54.147Z,3.40
2022-08-20T07:56:26.261Z,3.90
2022-08-20T07:59:01.471Z,2.93
2022-08-20T08:01:33.481Z,3.47
2022-08-20T08:04:03.614Z,3.70
2022-08-20T08:06:54.026Z,3.33
2022-08-20T08:09:23.536Z,4.07
2022-08-20T08:11:54.674Z,3.80
2022-08-20T08:14:29.470Z,3.17
2022-08-20T08:17:03.414Z,3.23
2022-08-20T08:19:38.792Z,3.40
2022-08-20T08:22:12.742Z,3.50
2022-08-20T08:24:56.732Z,3.07
2022-08-20T08:27:17.893Z,2.97
2022-08-20T08:29:49.792Z,3.73
2022-08-20T08:32:20.157Z,3.23
2022-08-20T08:34:49.639Z,3.27
2022-08-20T08:37:19.141Z,3.37
2022-08-20T08:39:48.646Z,3.00
2022-08-20T08:42:31.661Z,3.80
2022-08-20T08:45:01.640Z,4.00
2022-08-20T08:47:35.961Z,3.30
2022-08-20T08:50:09.846Z,3.43
2022-08-20T08:52:42.027Z,3.30
2022-08-20T08:55:16.450Z,3.33
2022-08-20T08:57:47.684Z,3.60
2022-08-20T09:00:21.901Z,3.70
2022-08-20T09:03:07.985Z,3.17
2022-08-20T09:05:53.596Z,3.43
2022-08-20T09:08:33.470Z,3.00
2022-08-20T09:11:06.950Z,2.90
2022-08-20T09:13:37.012Z,2.63
2022-08-20T09:16:06.752Z,3.20
2022-08-20T09:18:36.299Z,3.67
2022-08-20T09:21:06.813Z,2.80
2022-08-20T09:23:37.408Z,3.10
2022-08-20T09:26:06.975Z,3.67
2022-08-20T09:28:37.280Z,4.03
2022-08-20T09:31:07.111Z,3.30
2022-08-20T09:33:36.828Z,2.90
2022-08-20T09:36:31.467Z,3.47
2022-08-20T09:38:37.717Z,3.00
2022-08-20T09:41:07.318Z,3.27
2022-08-20T09:43:36.879Z,3.00
2022-08-20T09:46:06.445Z,2.90
2022-08-20T09:48:35.930Z,3.00
2022-08-20T09:51:05.859Z,3.20
2022-08-20T09:53:36.190Z,3.03
2022-08-20T09:56:06.123Z,3.27
2022-08-20T09:58:43.175Z,3.20
2022-08-20T10:01:16.616Z,3.30
2022-08-20T10:03:48.955Z,3.17
2022-08-20T10:06:20.883Z,3.33
2022-08-20T10:08:51.254Z,3.00
2022-08-20T10:11:21.121Z,3.17
2022-08-20T10:13:50.783Z,3.10
2022-08-20T10:16:20.282Z,2.90
2022-08-20T10:18:49.987Z,2.60
2022-08-20T10:21:20.130Z,2.50
2022-08-20T10:23:50.144Z,2.67
2022-08-20T10:26:19.706Z,2.80
2022-08-20T10:28:49.265Z,2.17
2022-08-20T10:31:18.758Z,2.43
2022-08-20T10:33:48.240Z,2.57
2022-08-20T10:36:20.138Z,2.50
2022-08-20T10:38:49.697Z,2.60
2022-08-20T10:41:19.958Z,2.77
2022-08-20T10:43:50.553Z,2.30
2022-08-20T10:46:20.045Z,2.60
2022-08-20T10:48:49.532Z,2.43
2022-08-20T10:51:19.330Z,2.50
2022-08-20T10:53:48.785Z,2.00
2022-08-20T10:56:18.443Z,2.60
2022-08-20T10:58:47.971Z,2.50
2022-08-20T11:01:31.664Z,2.50
2022-08-20T11:03:48.714Z,2.60
2022-08-20T11:06:18.245Z,2.23
2022-08-20T11:08:48.853Z,2.60
2022-08-20T11:11:18.299Z,3.00
2022-08-20T11:13:47.780Z,2.50
2022-08-20T11:16:17.275Z,2.80
2022-08-20T11:18:47.710Z,2.70
2022-08-20T11:21:17.709Z,2.60
2022-08-20T11:23:47.207Z,2.20
2022-08-20T11:26:23.493Z,2.00
2022-08-20T11:28:53.147Z,2.20
2022-08-20T11:31:22.645Z,1.80
2022-08-20T11:33:52.137Z,1.90
2022-08-20T11:36:24.541Z,2.57
2022-08-20T11:38:54.771Z,2.33
2022-08-20T11:41:24.273Z,2.30
2022-08-20T11:44:17.468Z,1.90
2022-08-20T11:46:28.475Z,1.93
2022-08-20T11:48:56.183Z,1.90
2022-08-20T11:51:25.684Z,2.20
2022-08-20T11:53:55.233Z,1.67
2022-08-20T11:56:24.751Z,1.50
2022-08-20T11:58:56.110Z,1.60
2022-08-20T12:01:26.084Z,1.93
2022-08-20T12:03:55.566Z,1.90
2022-08-20T12:06:25.147Z,1.80
2022-08-20T12:08:54.633Z,1.70
2022-08-20T12:11:24.163Z,1.50
2022-08-20T12:13:53.643Z,2.13
2022-08-20T12:16:23.138Z,1.87
2022-08-20T12:18:52.617Z,1.73
2022-08-20T12:21:22.134Z,1.93
2022-08-20T12:23:51.622Z,1.90
2022-08-20T12:26:21.127Z,2.13
2022-08-20T12:28:50.667Z,1.93
2022-08-20T12:31:20.168Z,1.80
2022-08-20T12:33:49.647Z,1.97
2022-08-20T12:36:19.154Z,2.07
2022-08-20T12:38:48.633Z,1.90
2022-08-20T12:41:18.304Z,2.00
2022-08-20T12:43:47.785Z,1.80
2022-08-20T12:46:18.955Z,1.83
2022-08-20T12:48:48.436Z,1.90
2022-08-20T12:51:18.223Z,1.80
2022-08-20T12:53:47.705Z,1.70
2022-08-20T12:56:17.207Z,1.90
2022-08-20T12:58:46.685Z,1.77
2022-08-20T13:01:35.617Z,1.80
2022-08-20T13:04:05.498Z,2.00
2022-08-20T13:06:34.987Z,1.50
2022-08-20T13:09:04.465Z,1.97
2022-08-20T13:11:33.972Z,1.80
2022-08-20T13:14:03.452Z,1.70
2022-08-20T13:16:33.479Z,1.97
2022-08-20T13:19:02.959Z,1.93
2022-08-20T13:21:32.460Z,1.77
2022-08-20T13:24:02.876Z,1.90
2022-08-20T13:26:32.376Z,1.60
2022-08-20T13:29:01.881Z,1.60
2022-08-20T13:31:31.550Z,2.17
2022-08-20T13:34:01.104Z,1.80
2022-08-20T13:36:30.735Z,1.70
2022-08-20T13:39:00.218Z,1.83
2022-08-20T13:41:29.888Z,1.80
2022-08-20T13:43:59.435Z,2.10
2022-08-20T13:46:29.108Z,1.47
2022-08-20T13:48:58.583Z,1.80
2022-08-20T13:51:28.113Z,1.60
2022-08-20T13:53:59.294Z,1.47
2022-08-20T13:56:28.800Z,1.40
2022-08-20T13:58:58.291Z,1.60
2022-08-20T14:01:27.901Z,1.70
2022-08-20T14:03:57.456Z,1.80
2022-08-20T14:06:27.020Z,1.70
2022-08-20T14:08:56.527Z,1.63
2022-08-20T14:11:26.092Z,1.50
2022-08-20T14:13:55.598Z,1.70
2022-08-20T14:16:27.581Z,1.97
2022-08-20T14:18:56.636Z,1.50
2022-08-20T14:21:26.196Z,1.70
2022-08-20T14:23:55.726Z,1.63
2022-08-20T14:26:25.821Z,1.80
2022-08-20T14:28:55.354Z,1.70
2022-08-20T14:31:24.914Z,1.63
2022-08-20T14:33:54.410Z,1.43
2022-08-20T14:36:23.951Z,1.80
2022-08-20T14:38:53.624Z,1.33
2022-08-20T14:41:23.177Z,1.50
2022-08-20T14:43:52.733Z,2.00
2022-08-20T14:46:22.283Z,1.60
2022-08-20T14:48:53.510Z,1.70
2022-08-20T14:51:23.077Z,1.70
2022-08-20T14:53:52.543Z,1.50
2022-08-20T14:56:22.092Z,1.93
2022-08-20T14:58:51.642Z,1.57
2022-08-20T15:01:21.532Z,1.60
2022-08-20T15:03:51.158Z,1.40
2022-08-20T15:06:21.940Z,1.50
2022-08-20T15:08:51.955Z,1.57
2022-08-20T15:11:21.519Z,1.50
2022-08-20T15:13:51.138Z,1.90
2022-08-20T15:16:20.670Z,1.50
2022-08-20T15:18:50.204Z,1.70
2022-08-20T15:21:22.039Z,1.60
2022-08-20T15:23:51.564Z,1.50
2022-08-20T15:26:21.107Z,2.10
2022-08-20T15:28:50.595Z,2.00
2022-08-20T15:31:20.175Z,2.10
2022-08-20T15:33:49.736Z,2.00
2022-08-20T15:36:19.885Z,1.80
2022-08-20T15:38:49.439Z,1.80
2022-08-20T15:41:18.943Z,2.07
2022-08-20T15:43:48.425Z,1.67
2022-08-20T15:46:17.916Z,1.90
2022-08-20T15:48:52.662Z,1.60
2022-08-20T15:51:37.142Z,1.70
2022-08-20T15:54:25.858Z,2.20
2022-08-20T15:57:05.739Z,1.20
2022-08-20T16:00:08.298Z,1.27
2022-08-20T16:05:26.127Z,1.83
2022-08-20T16:08:11.762Z,1.60
2022-08-20T16:11:03.288Z,1.70
2022-08-20T16:13:58.315Z,1.70
2022-08-20T16:16:38.605Z,1.47
2022-08-20T16:19:12.882Z,1.80
2022-08-20T16:21:45.618Z,1.70
2022-08-20T16:24:15.775Z,2.50
2022-08-20T16:27:14.856Z,2.00
2022-08-20T16:30:09.729Z,1.43
2022-08-20T16:32:55.083Z,1.80
2022-08-20T16:35:37.749Z,1.80
2022-08-20T16:38:35.264Z,1.60
2022-08-20T16:41:24.330Z,1.77
2022-08-20T16:43:57.925Z,1.93
2022-08-20T16:46:36.110Z,1.90
2022-08-20T16:49:07.917Z,2.23
2022-08-20T16:51:53.293Z,1.67
2022-08-20T16:54:28.492Z,1.60
2022-08-20T16:57:05.082Z,2.10
2022-08-20T16:59:36.999Z,1.90
2022-08-20T17:02:10.996Z,2.00
2022-08-20T17:05:00.024Z,1.93
2022-08-20T17:07:51.268Z,1.90
2022-08-20T17:10:29.122Z,1.43
2022-08-20T17:13:17.932Z,1.40
2022-08-20T17:16:00.853Z,1.43
2022-08-20T17:18:37.633Z,2.30
2022-08-20T17:21:24.601Z,1.97
2022-08-20T17:24:01.748Z,1.60
2022-08-20T17:26:38.244Z,1.50
2022-08-20T17:29:23.935Z,1.30
2022-08-20T17:32:00.529Z,1.10
2022-08-20T17:34:37.861Z,1.17
2022-08-20T17:37:11.978Z,1.00
2022-08-20T17:39:51.985Z,0.90
2022-08-20T17:42:26.411Z,0.80
2022-08-20T17:45:18.668Z,0.80
2022-08-20T17:47:48.705Z,0.90
2022-08-20T17:50:22.636Z,0.80
2022-08-20T17:53:22.528Z,0.80
2022-08-20T17:55:53.664Z,0.60
2022-08-20T17:58:27.781Z,0.60
2022-08-20T18:00:57.338Z,0.50
2022-08-20T18:03:28.518Z,0.43
2022-08-20T18:06:30.827Z,0.50
2022-08-20T18:09:07.667Z,0.80
2022-08-20T18:11:59.624Z,0.50
2022-08-20T18:15:06.566Z,0.70
2022-08-20T18:17:52.982Z,0.73
2022-08-20T18:20:42.146Z,0.80
2022-08-20T18:23:28.768Z,0.80
2022-08-20T18:26:17.647Z,0.60
2022-08-20T18:29:00.642Z,0.40
2022-08-20T18:31:35.014Z,0.50
2022-08-20T18:34:24.096Z,0.50
2022-08-20T18:37:01.540Z,0.50
2022-08-20T18:39:36.135Z,0.80
2022-08-20T18:42:12.580Z,0.70
2022-08-20T18:44:51.871Z,0.40
2022-08-20T18:47:37.737Z,0.60
2022-08-20T18:50:16.810Z,0.67
2022-08-20T18:52:47.897Z,0.63
2022-08-20T18:55:39.967Z,0.50
2022-08-20T18:58:32.063Z,0.50
2022-08-20T19:01:05.456Z,0.60
2022-08-20T19:03:42.459Z,0.47
2022-08-20T19:06:33.971Z,0.50
2022-08-20T19:09:29.080Z,0.50
2022-08-20T19:12:03.187Z,0.70
2022-08-20T19:14:55.201Z,0.47
2022-08-20T19:17:45.616Z,0.70
2022-08-20T19:20:23.208Z,0.95
2022-08-20T19:22:57.257Z,0.70
2022-08-20T19:25:40.221Z,0.80
2022-08-20T19:28:35.424Z,0.60
2022-08-20T19:31:15.412Z,0.60
2022-08-20T19:33:46.906Z,0.60
2022-08-20T19:36:28.119Z,1.07
2022-08-20T19:39:04.460Z,1.13
2022-08-20T19:41:38.969Z,0.70
2022-08-20T19:44:08.609Z,0.80
2022-08-20T19:46:42.846Z,0.80
2022-08-20T19:49:25.573Z,0.80
2022-08-20T19:52:05.401Z,1.00
2022-08-20T19:54:49.877Z,0.90
2022-08-20T19:57:22.080Z,1.33
2022-08-20T20:00:03.720Z,1.20
2022-08-20T20:02:35.432Z,1.10
2022-08-20T20:05:10.473Z,0.97
2022-08-20T20:07:56.082Z,1.20
2022-08-20T20:10:35.572Z,1.23
2022-08-20T20:13:12.655Z,1.00
2022-08-20T20:15:43.481Z,1.20
2022-08-20T20:18:14.381Z,1.40
2022-08-20T20:20:57.398Z,2.07
2022-08-20T20:23:45.833Z,1.97
2022-08-20T20:26:04.597Z,1.67
2022-08-20T20:28:50.165Z,1.67
2022-08-20T20:31:29.986Z,1.63
2022-08-20T20:34:03.628Z,2.10
2022-08-20T20:36:46.856Z,2.40
2022-08-20T20:39:36.086Z,2.17
2022-08-20T20:42:10.464Z,2.80
2022-08-20T20:44:43.763Z,2.80
2022-08-20T20:47:31.586Z,2.23
2022-08-20T20:50:05.725Z,2.47
2022-08-20T20:52:51.310Z,2.50
2022-08-20T20:55:31.035Z,2.23
2022-08-20T20:58:02.614Z,1.90
2022-08-20T21:00:35.106Z,2.00
2022-08-20T21:03:04.739Z,1.83
2022-08-20T21:05:34.704Z,1.73
2022-08-20T21:08:09.038Z,1.50
2022-08-20T21:10:41.857Z,1.37
2022-08-20T21:13:12.803Z,1.60
2022-08-20T21:15:42.379Z,1.30
2022-08-20T21:18:12.435Z,0.93
2022-08-20T21:20:41.949Z,0.80
2022-08-20T21:23:11.500Z,0.90
2022-08-20T21:25:41.775Z,0.83
2022-08-20T21:28:11.328Z,0.80
2022-08-20T21:30:40.847Z,1.00
2022-08-20T21:33:10.334Z,0.90
2022-08-20T21:35:39.835Z,0.80
2022-08-20T21:38:09.319Z,0.90
2022-08-20T21:40:39.017Z,0.83
2022-08-20T21:43:10.900Z,1.10
2022-08-20T21:45:41.027Z,0.90
2022-08-20T21:48:12.593Z,0.80
2022-08-20T21:50:42.264Z,1.20
2022-08-20T21:53:12.875Z,1.20
2022-08-20T21:55:43.142Z,0.90
2022-08-20T21:58:13.600Z,1.00
2022-08-20T22:00:59.518Z,1.00
2022-08-20T22:03:33.964Z,1.17
2022-08-20T22:06:08.300Z,1.83
2022-08-20T22:08:38.019Z,1.63
2022-08-20T22:11:10.839Z,1.30
2022-08-20T22:13:43.686Z,1.20
2022-08-20T22:16:17.257Z,2.50
2022-08-20T22:18:48.653Z,3.33
2022-08-20T22:21:26.030Z,3.57
2022-08-20T22:24:01.417Z,3.93
2022-08-20T22:26:32.824Z,3.70
2022-08-20T22:29:03.246Z,2.83
2022-08-20T22:31:36.854Z,2.70
2022-08-20T22:34:07.518Z,2.50
2022-08-20T22:36:37.664Z,2.53
2022-08-20T22:39:08.557Z,2.40
2022-08-20T22:41:38.636Z,2.40
2022-08-20T22:44:08.463Z,3.00
2022-08-20T22:46:47.072Z,2.60
2022-08-20T22:49:17.378Z,2.03
2022-08-20T22:51:47.323Z,1.73
2022-08-20T22:54:21.316Z,1.80
2022-08-20T22:56:52.523Z,1.30
2022-08-20T22:59:23.994Z,1.50
2022-08-20T23:01:54.922Z,1.20
2022-08-20T23:04:28.955Z,1.13
2022-08-20T23:07:00.061Z,1.00
2022-08-20T23:09:30.887Z,0.90
2022-08-20T23:12:00.991Z,0.70
2022-08-20T23:14:30.482Z,1.07
2022-08-20T23:17:12.660Z,0.90
2022-08-20T23:19:40.724Z,0.80
2022-08-20T23:22:10.937Z,0.90
2022-08-20T23:24:40.495Z,0.80
2022-08-20T23:27:13.429Z,0.77
2022-08-20T23:29:43.558Z,0.50
2022-08-20T23:32:13.526Z,0.53
2022-08-20T23:34:43.016Z,0.60
2022-08-20T23:37:13.535Z,0.77
2022-08-20T23:39:44.704Z,0.73
2022-08-20T23:42:15.908Z,0.60
2022-08-20T23:44:45.733Z,0.80
2022-08-20T23:47:19.655Z,0.50
2022-08-20T23:49:49.486Z,0.80
2022-08-20T23:52:22.049Z,0.60
2022-08-20T23:54:51.904Z,0.83
2022-08-20T23:57:21.408Z,0.50
2022-08-20T23:59:52.982Z,0.80
